Airport View

Enter AWOS ICAO identifier for current METAR.

ex. KFNL

KECP 101509Z 00000KT 10SM VCTS SCT023 SCT065 32/26 A3011 RMK AO2 LTG DSNT E T03170261

10 Aug 2020 15:30

Frequency: 119.975

Phone: 850-235-7857

Other Area AWOS: KPAM - K54J - K1J0 - KDTS

TAF AMD KECP 101515Z 1015/1112 20005KT P6SM SCT050 FM101600 22007KT P6SM VCTS SCT045CB TEMPO 1016/1018 27018G28KT 1SM TSRA SCT030CB BKN050 FM102100 21006KT P6SM FEW070